createdAt,value
2019-03-20T00:01:07.949Z,64.60
2019-03-20T00:03:38.451Z,66.02
2019-03-20T00:06:08.814Z,63.65
2019-03-20T00:08:39.128Z,66.80
2019-03-20T00:11:09.465Z,61.48
2019-03-20T00:13:39.938Z,62.00
2019-03-20T00:16:10.264Z,62.30
2019-03-20T00:18:40.562Z,61.37
2019-03-20T00:21:13.054Z,62.00
2019-03-20T00:23:44.462Z,62.05
2019-03-20T00:26:14.754Z,61.60
2019-03-20T00:28:45.034Z,60.12
2019-03-20T00:31:15.293Z,60.17
2019-03-20T00:33:45.580Z,58.45
2019-03-20T00:36:15.969Z,57.70
2019-03-20T00:38:46.190Z,59.50
2019-03-20T00:41:16.472Z,57.13
2019-03-20T00:43:46.706Z,57.53
2019-03-20T00:46:17.041Z,56.53
2019-03-20T00:48:47.274Z,56.80
2019-03-20T00:51:18.616Z,56.95
2019-03-20T00:53:49.936Z,54.48
2019-03-20T00:56:20.220Z,55.60
2019-03-20T00:58:50.532Z,53.20
2019-03-20T01:01:20.834Z,53.15
2019-03-20T01:03:51.092Z,51.92
2019-03-20T01:06:21.335Z,52.80
2019-03-20T01:08:51.527Z,52.40
2019-03-20T01:11:22.844Z,51.18
2019-03-20T01:13:53.071Z,52.67
2019-03-20T01:16:24.429Z,51.23
2019-03-20T01:18:56.368Z,50.98
2019-03-20T01:21:26.613Z,49.30
2019-03-20T01:23:56.821Z,50.08
2019-03-20T01:26:27.243Z,51.18
2019-03-20T01:28:57.513Z,50.25
2019-03-20T01:31:28.859Z,51.08
2019-03-20T01:33:59.172Z,50.20
2019-03-20T01:36:29.417Z,49.85
2019-03-20T01:38:59.873Z,46.68
2019-03-20T01:41:37.970Z,46.48
2019-03-20T01:44:02.175Z,46.63
2019-03-20T01:46:32.691Z,46.08
2019-03-20T01:49:03.010Z,46.80
2019-03-20T01:51:33.260Z,44.93
2019-03-20T01:54:03.483Z,46.95
2019-03-20T01:56:33.728Z,43.45
2019-03-20T01:59:03.955Z,44.83
2019-03-20T02:01:34.314Z,44.05
2019-03-20T02:04:04.596Z,43.58
2019-03-20T02:06:37.341Z,43.08
2019-03-20T02:09:08.201Z,42.03
2019-03-20T02:11:38.477Z,41.48
2019-03-20T02:14:08.774Z,41.25
2019-03-20T02:16:39.012Z,41.35
2019-03-20T02:19:09.314Z,42.20
2019-03-20T02:21:39.651Z,41.20
2019-03-20T02:24:09.905Z,39.58
2019-03-20T02:26:40.127Z,41.33
2019-03-20T02:29:10.336Z,40.40
2019-03-20T02:31:40.617Z,39.95
2019-03-20T02:34:10.841Z,41.73
2019-03-20T02:36:41.116Z,39.23
2019-03-20T02:39:11.321Z,37.73
2019-03-20T02:41:41.587Z,39.00
2019-03-20T02:44:11.917Z,38.15
2019-03-20T02:46:42.148Z,37.75
2019-03-20T02:49:12.692Z,36.55
2019-03-20T02:51:42.902Z,38.20
2019-03-20T02:54:13.184Z,36.25
2019-03-20T02:56:43.386Z,36.13
2019-03-20T02:59:15.822Z,35.95
2019-03-20T03:01:46.174Z,35.33
2019-03-20T03:04:16.466Z,34.95
2019-03-20T03:06:48.700Z,36.90
2019-03-20T03:09:18.976Z,35.52
2019-03-20T03:11:49.193Z,34.38
2019-03-20T03:14:19.421Z,35.45
2019-03-20T03:16:50.695Z,36.58
2019-03-20T03:19:20.977Z,35.05
2019-03-20T03:21:51.198Z,33.65
2019-03-20T03:24:21.516Z,32.28
2019-03-20T03:26:51.729Z,32.58
2019-03-20T03:29:21.956Z,32.83
2019-03-20T03:31:52.236Z,32.95
2019-03-20T03:34:22.528Z,30.90
2019-03-20T03:36:53.103Z,31.57
2019-03-20T03:39:23.440Z,31.97
2019-03-20T03:41:53.641Z,31.27
2019-03-20T03:44:25.015Z,33.70
2019-03-20T03:46:55.251Z,32.17
2019-03-20T03:49:25.521Z,29.45
2019-03-20T03:51:56.101Z,31.45
2019-03-20T03:54:26.439Z,28.77
2019-03-20T03:56:56.727Z,28.17
2019-03-20T03:59:27.018Z,34.80
2019-03-20T04:01:57.222Z,41.30
2019-03-20T04:04:27.424Z,45.30
2019-03-20T04:06:57.721Z,49.08
2019-03-20T04:09:27.971Z,42.88
2019-03-20T04:11:58.154Z,47.75
2019-03-20T04:14:28.459Z,47.55
2019-03-20T04:16:58.736Z,45.28
2019-03-20T04:19:28.983Z,43.02
2019-03-20T04:22:00.250Z,46.02
2019-03-20T04:24:30.506Z,45.63
2019-03-20T04:27:00.755Z,46.13
2019-03-20T04:29:31.043Z,51.45
2019-03-20T04:32:01.338Z,48.58
2019-03-20T04:34:31.649Z,49.10
2019-03-20T04:37:02.957Z,47.80
2019-03-20T04:39:33.226Z,50.55
2019-03-20T04:42:03.425Z,53.02
2019-03-20T04:44:33.968Z,49.85
2019-03-20T04:47:05.729Z,47.67
2019-03-20T04:49:36.049Z,47.50
2019-03-20T04:52:06.300Z,47.23
2019-03-20T04:54:36.671Z,44.65
2019-03-20T04:57:06.895Z,45.03
2019-03-20T04:59:37.145Z,44.10
2019-03-20T05:02:07.484Z,44.80
2019-03-20T05:04:37.699Z,41.10
2019-03-20T05:07:07.997Z,42.73
2019-03-20T05:09:38.278Z,41.42
2019-03-20T05:12:08.668Z,43.23
2019-03-20T05:14:40.970Z,41.92
2019-03-20T05:17:11.261Z,39.33
2019-03-20T05:19:41.584Z,38.53
2019-03-20T05:22:11.824Z,41.83
2019-03-20T05:24:42.233Z,39.63
2019-03-20T05:27:12.470Z,39.08
2019-03-20T05:29:42.811Z,38.98
2019-03-20T05:32:13.163Z,38.35
2019-03-20T05:34:43.344Z,37.95
2019-03-20T05:37:13.762Z,35.20
2019-03-20T05:39:44.093Z,35.58
2019-03-20T05:42:14.352Z,35.83
2019-03-20T05:44:46.796Z,36.33
2019-03-20T05:47:17.067Z,35.83
2019-03-20T05:49:47.318Z,33.45
2019-03-20T05:52:17.519Z,33.90
2019-03-20T05:54:47.786Z,33.90
2019-03-20T05:57:17.994Z,35.48
2019-03-20T05:59:49.686Z,46.77
2019-03-20T06:02:19.925Z,48.92
2019-03-20T06:04:50.207Z,47.73
2019-03-20T06:07:21.782Z,46.50
2019-03-20T06:09:52.489Z,47.43
2019-03-20T06:12:22.762Z,46.30
2019-03-20T06:14:52.969Z,46.28
2019-03-20T06:17:23.200Z,43.63
2019-03-20T06:19:53.541Z,44.38
2019-03-20T06:22:23.876Z,46.90
2019-03-20T06:24:54.125Z,42.58
2019-03-20T06:27:24.397Z,43.38
2019-03-20T06:29:57.042Z,44.53
2019-03-20T06:32:27.684Z,46.15
2019-03-20T06:34:58.992Z,49.03
2019-03-20T06:37:32.818Z,50.70
2019-03-20T06:40:01.208Z,53.50
2019-03-20T06:42:31.802Z,57.78
2019-03-20T06:45:02.076Z,63.90
2019-03-20T06:47:32.413Z,64.17
2019-03-20T06:50:02.695Z,59.73
2019-03-20T06:52:33.061Z,58.15
2019-03-20T06:55:03.324Z,58.05
2019-03-20T06:57:33.584Z,59.83
2019-03-20T07:00:46.266Z,56.75
2019-03-20T07:03:20.744Z,59.13
2019-03-20T07:06:11.251Z,56.00
2019-03-20T07:08:45.788Z,58.58
2019-03-20T07:11:18.456Z,54.15
2019-03-20T07:13:50.654Z,55.30
2019-03-20T07:16:21.002Z,57.40
2019-03-20T07:18:51.298Z,56.88
2019-03-20T07:21:21.615Z,54.75
2019-03-20T07:23:51.998Z,57.23
2019-03-20T07:26:22.207Z,54.48
2019-03-20T07:28:52.587Z,54.23
2019-03-20T07:31:22.849Z,54.75
2019-03-20T07:33:53.322Z,55.50
2019-03-20T07:36:23.775Z,53.35
2019-03-20T07:38:54.080Z,52.88
2019-03-20T07:41:24.324Z,54.38
2019-03-20T07:43:54.611Z,53.00
2019-03-20T07:46:25.746Z,53.60
2019-03-20T07:48:56.057Z,52.88
2019-03-20T07:51:26.293Z,50.88
2019-03-20T07:53:56.847Z,52.15
2019-03-20T07:56:27.142Z,49.83
2019-03-20T07:58:57.368Z,49.50
2019-03-20T08:01:27.642Z,51.05
2019-03-20T08:03:57.851Z,50.78
2019-03-20T08:06:28.545Z,49.73
2019-03-20T08:08:58.783Z,49.75
2019-03-20T08:11:29.067Z,47.73
2019-03-20T08:13:59.271Z,47.67
2019-03-20T08:16:29.464Z,48.08
2019-03-20T08:18:59.816Z,48.58
2019-03-20T08:21:32.011Z,47.30
2019-03-20T08:24:02.376Z,47.62
2019-03-20T08:26:32.673Z,48.17
2019-03-20T08:29:02.998Z,46.45
2019-03-20T08:31:33.283Z,47.10
2019-03-20T08:34:03.676Z,45.90
2019-03-20T08:36:35.002Z,46.55
2019-03-20T08:39:07.252Z,45.48
2019-03-20T08:41:38.544Z,46.05
2019-03-20T08:44:08.853Z,44.35
2019-03-20T08:46:40.113Z,44.03
2019-03-20T08:49:10.394Z,44.90
2019-03-20T08:51:41.737Z,44.18
2019-03-20T08:54:12.007Z,44.53
2019-03-20T08:56:42.374Z,44.05
2019-03-20T08:59:12.716Z,43.40
2019-03-20T09:01:43.168Z,43.42
2019-03-20T09:04:13.498Z,43.40
2019-03-20T09:06:43.829Z,42.40
2019-03-20T09:09:14.146Z,41.40
2019-03-20T09:11:45.598Z,42.98
2019-03-20T09:14:15.933Z,39.80
2019-03-20T09:16:46.549Z,42.13
2019-03-20T09:19:17.678Z,40.73
2019-03-20T09:21:48.278Z,40.52
2019-03-20T09:24:18.863Z,39.78
2019-03-20T09:26:49.139Z,39.30
2019-03-20T09:29:19.383Z,39.78
2019-03-20T09:31:49.825Z,39.15
2019-03-20T09:34:21.060Z,39.20
2019-03-20T09:36:51.382Z,37.98
2019-03-20T09:39:21.610Z,38.10
2019-03-20T09:41:52.049Z,38.25
2019-03-20T09:44:22.347Z,37.17
2019-03-20T09:46:52.649Z,36.90
2019-03-20T09:49:22.916Z,38.15
2019-03-20T09:51:53.127Z,36.55
2019-03-20T09:54:23.387Z,36.95
2019-03-20T09:56:53.737Z,34.27
2019-03-20T09:59:24.033Z,36.85
2019-03-20T10:01:54.239Z,36.65
2019-03-20T10:04:24.524Z,36.83
2019-03-20T10:06:54.893Z,34.75
2019-03-20T10:09:25.211Z,35.65
2019-03-20T10:11:57.486Z,35.23
2019-03-20T10:14:27.546Z,34.08
2019-03-20T10:16:57.936Z,35.88
2019-03-20T10:19:28.163Z,34.00
2019-03-20T10:21:58.490Z,33.42
2019-03-20T10:24:28.722Z,33.05
2019-03-20T10:26:59.074Z,35.00
2019-03-20T10:29:29.310Z,32.98
2019-03-20T10:31:59.603Z,33.33
2019-03-20T10:34:39.159Z,32.83
2019-03-20T10:37:01.850Z,33.00
2019-03-20T10:39:32.166Z,32.63
2019-03-20T10:42:02.436Z,32.67
2019-03-20T10:44:32.883Z,30.80
2019-03-20T10:47:03.135Z,32.15
2019-03-20T10:49:33.449Z,31.73
2019-03-20T10:52:03.809Z,32.08
2019-03-20T10:54:34.092Z,31.25
2019-03-20T10:57:08.862Z,30.65
2019-03-20T10:59:39.063Z,30.45
2019-03-20T11:02:09.420Z,29.42
2019-03-20T11:04:39.817Z,30.70
2019-03-20T11:07:10.061Z,29.57
2019-03-20T11:09:40.363Z,30.17
2019-03-20T11:12:10.561Z,27.73
2019-03-20T11:14:40.777Z,29.90
2019-03-20T11:17:11.718Z,27.42
2019-03-20T11:19:42.603Z,29.32
2019-03-20T11:22:18.781Z,28.73
2019-03-20T11:24:44.780Z,27.62
2019-03-20T11:27:15.076Z,27.58
2019-03-20T11:29:45.326Z,28.57
2019-03-20T11:32:16.019Z,28.40
2019-03-20T11:34:46.218Z,26.00
2019-03-20T11:37:18.704Z,27.35
2019-03-20T11:39:49.128Z,27.58
2019-03-20T11:42:19.431Z,28.35
2019-03-20T11:44:49.745Z,27.65
2019-03-20T11:47:20.027Z,27.07
2019-03-20T11:49:50.317Z,27.40
2019-03-20T11:52:20.613Z,26.93
2019-03-20T11:54:50.892Z,27.35
2019-03-20T11:57:22.270Z,25.97
2019-03-20T11:59:52.583Z,25.62
2019-03-20T12:02:27.994Z,26.50
2019-03-20T12:04:54.777Z,26.10
2019-03-20T12:07:25.102Z,26.05
2019-03-20T12:09:55.772Z,25.32
2019-03-20T12:12:26.115Z,25.20
2019-03-20T12:14:56.356Z,24.40
2019-03-20T12:17:26.599Z,25.30
2019-03-20T12:19:56.790Z,24.63
2019-03-20T12:22:27.063Z,24.60
2019-03-20T12:24:57.634Z,25.80
2019-03-20T12:27:27.919Z,24.70
2019-03-20T12:29:59.273Z,25.43
2019-03-20T12:32:29.486Z,24.55
2019-03-20T12:35:02.681Z,22.82
2019-03-20T12:37:32.923Z,22.70
2019-03-20T12:40:03.115Z,24.00
2019-03-20T12:42:33.478Z,22.58
2019-03-20T12:45:03.742Z,22.42
2019-03-20T12:47:34.188Z,23.38
2019-03-20T12:50:04.470Z,23.18
2019-03-20T12:52:34.728Z,21.52
2019-03-20T12:55:05.364Z,22.22
2019-03-20T12:57:35.646Z,22.55
2019-03-20T13:00:08.139Z,21.37
2019-03-20T13:02:38.804Z,21.07
2019-03-20T13:05:09.970Z,21.30
2019-03-20T13:07:40.365Z,21.12
2019-03-20T13:10:12.162Z,21.60
2019-03-20T13:12:42.410Z,22.55
2019-03-20T13:15:15.256Z,21.50
2019-03-20T13:17:45.595Z,21.48
2019-03-20T13:20:16.528Z,21.00
2019-03-20T13:22:50.533Z,21.07
2019-03-20T13:25:21.014Z,21.25
2019-03-20T13:27:51.381Z,20.57
2019-03-20T13:30:24.459Z,20.48
2019-03-20T13:32:54.789Z,20.90
2019-03-20T13:35:25.073Z,20.10
2019-03-20T13:37:55.377Z,20.17
2019-03-20T13:40:26.738Z,19.40
2019-03-20T13:42:57.245Z,21.02
2019-03-20T13:45:27.591Z,19.82
2019-03-20T13:47:57.831Z,19.67
2019-03-20T13:50:28.193Z,18.40
2019-03-20T13:52:58.424Z,19.55
2019-03-20T13:55:28.825Z,18.32
2019-03-20T13:57:59.112Z,19.67
2019-03-20T14:00:28.794Z,18.87
2019-03-20T14:02:57.514Z,18.87
2019-03-20T14:05:27.838Z,17.87
2019-03-20T14:07:58.141Z,19.05
2019-03-20T14:10:28.467Z,19.27
2019-03-20T14:12:58.741Z,17.80
2019-03-20T14:15:28.929Z,17.65
2019-03-20T14:17:59.142Z,18.65
2019-03-20T14:20:29.498Z,17.48
2019-03-20T14:22:59.788Z,18.40
2019-03-20T14:25:31.304Z,17.00
2019-03-20T14:28:01.598Z,17.87
2019-03-20T14:30:32.298Z,17.50
2019-03-20T14:33:07.515Z,17.27
2019-03-20T14:35:37.801Z,17.85
2019-03-20T14:38:09.110Z,17.15
2019-03-20T14:40:39.399Z,16.17
2019-03-20T14:43:09.921Z,16.90
2019-03-20T14:45:40.124Z,16.73
2019-03-20T14:48:10.954Z,16.73
2019-03-20T14:50:42.096Z,16.90
2019-03-20T14:53:12.315Z,16.52
2019-03-20T14:55:42.571Z,15.95
2019-03-20T14:58:12.815Z,16.42
2019-03-20T15:00:43.043Z,16.20
2019-03-20T15:03:13.344Z,15.78
2019-03-20T15:05:43.779Z,15.40
2019-03-20T15:08:14.042Z,15.13
2019-03-20T15:10:46.207Z,15.15
2019-03-20T15:13:16.369Z,15.65
2019-03-20T15:15:56.547Z,15.53
2019-03-20T15:18:26.762Z,14.05
2019-03-20T15:20:57.078Z,14.93
2019-03-20T15:23:27.328Z,14.83
2019-03-20T15:25:57.933Z,9.30
2019-03-20T15:28:28.127Z,10.05
2019-03-20T15:30:58.383Z,12.18
2019-03-20T15:33:28.653Z,10.05
2019-03-20T15:35:58.910Z,11.28
2019-03-20T15:38:29.208Z,9.00
2019-03-20T15:40:59.511Z,8.70
2019-03-20T15:43:29.783Z,7.08
2019-03-20T15:46:00.452Z,5.67
2019-03-20T15:48:30.751Z,6.35
2019-03-20T15:51:00.946Z,5.42
2019-03-20T15:53:31.273Z,6.10
2019-03-20T15:56:49.798Z,6.90
2019-03-20T15:59:39.123Z,5.83
2019-03-20T16:02:09.391Z,33.25
2019-03-20T16:04:39.708Z,35.28
2019-03-20T16:07:08.309Z,30.50
2019-03-20T16:09:38.945Z,19.17
2019-03-20T16:12:09.253Z,15.45
2019-03-20T16:14:40.172Z,11.75
2019-03-20T16:17:10.563Z,10.58
2019-03-20T16:19:41.001Z,10.63
2019-03-20T16:22:11.233Z,11.00
2019-03-20T16:24:41.445Z,8.95
2019-03-20T16:27:11.693Z,8.28
2019-03-20T16:29:42.060Z,8.65
2019-03-20T16:32:12.250Z,5.42
2019-03-20T16:34:42.494Z,12.58
2019-03-20T16:37:12.821Z,24.10
2019-03-20T16:39:43.130Z,25.50
2019-03-20T16:42:13.470Z,24.85
2019-03-20T16:44:43.795Z,22.13
2019-03-20T16:47:14.100Z,21.30
2019-03-20T16:49:44.408Z,20.60
2019-03-20T16:52:15.699Z,20.95
2019-03-20T16:54:46.117Z,18.70
2019-03-20T16:57:16.406Z,18.45
2019-03-20T16:59:47.071Z,20.68
2019-03-20T17:02:17.731Z,49.05
2019-03-20T17:04:48.044Z,37.60
2019-03-20T17:07:18.348Z,38.13
2019-03-20T17:09:48.779Z,36.77
2019-03-20T17:12:19.554Z,35.28
2019-03-20T17:14:50.494Z,36.33
2019-03-20T17:17:21.810Z,33.30
2019-03-20T17:19:52.593Z,35.68
2019-03-20T17:22:23.581Z,33.25
2019-03-20T17:24:54.303Z,31.85
2019-03-20T17:27:23.583Z,30.52
2019-03-20T17:29:54.606Z,28.57
2019-03-20T17:32:25.046Z,30.20
2019-03-20T17:34:57.689Z,28.40
2019-03-20T17:37:27.993Z,26.65
2019-03-20T17:39:58.383Z,26.48
2019-03-20T17:42:29.755Z,25.23
2019-03-20T17:45:00.358Z,26.52
2019-03-20T17:47:30.894Z,25.68
2019-03-20T17:52:41.902Z,24.80
2019-03-20T17:55:13.229Z,23.52
2019-03-20T17:57:44.159Z,23.35
2019-03-20T18:00:17.639Z,24.32
2019-03-20T18:02:49.831Z,25.40
2019-03-20T18:05:20.554Z,24.65
2019-03-20T18:07:52.343Z,26.90
2019-03-20T18:10:22.849Z,23.45
2019-03-20T18:12:53.345Z,28.77
2019-03-20T18:15:23.839Z,23.02
2019-03-20T18:17:54.635Z,24.75
2019-03-20T18:20:25.600Z,23.30
2019-03-20T18:22:55.931Z,22.58
2019-03-20T18:25:26.420Z,22.32
2019-03-20T18:27:58.209Z,22.07
2019-03-20T18:30:28.691Z,23.38
2019-03-20T18:33:01.490Z,25.30
2019-03-20T18:35:32.506Z,25.75
2019-03-20T18:38:02.980Z,25.08
2019-03-20T18:40:33.633Z,26.15
2019-03-20T18:43:04.523Z,26.62
2019-03-20T18:45:35.074Z,26.05
2019-03-20T18:48:05.794Z,25.52
2019-03-20T18:50:36.320Z,26.40
2019-03-20T18:53:06.898Z,28.05
2019-03-20T18:55:37.258Z,29.82
2019-03-20T18:58:07.488Z,32.05
2019-03-20T19:00:37.834Z,31.57
2019-03-20T19:03:08.310Z,31.17
2019-03-20T19:05:51.444Z,31.50
2019-03-20T19:08:21.933Z,28.95
2019-03-20T19:10:52.304Z,31.37
2019-03-20T19:13:24.455Z,29.60
2019-03-20T19:15:54.586Z,27.95
2019-03-20T19:18:24.810Z,27.58
2019-03-20T19:20:58.769Z,28.75
2019-03-20T19:23:29.059Z,27.22
2019-03-20T19:26:00.116Z,25.80
2019-03-20T19:28:30.343Z,25.57
2019-03-20T19:31:07.994Z,27.45
2019-03-20T19:33:38.279Z,26.10
2019-03-20T19:36:08.597Z,26.65
2019-03-20T19:38:39.337Z,28.67
2019-03-20T19:41:13.518Z,26.45
2019-03-20T19:43:44.315Z,28.05
2019-03-20T19:46:14.681Z,28.83
2019-03-20T19:48:45.409Z,29.75
2019-03-20T19:51:15.702Z,29.30
2019-03-20T19:53:47.078Z,27.87
2019-03-20T19:56:17.439Z,29.23
2019-03-20T19:58:47.815Z,28.23
2019-03-20T20:01:18.204Z,28.98
2019-03-20T20:03:49.071Z,30.55
2019-03-20T20:06:19.403Z,30.90
2019-03-20T20:08:49.790Z,30.88
2019-03-20T20:11:20.144Z,31.15
2019-03-20T20:13:50.416Z,31.37
2019-03-20T20:16:21.521Z,31.33
2019-03-20T20:18:51.715Z,34.75
2019-03-20T20:21:24.031Z,34.67
2019-03-20T20:23:54.424Z,36.53
2019-03-20T20:26:24.670Z,35.75
2019-03-20T20:28:55.014Z,35.23
2019-03-20T20:31:25.315Z,35.40
2019-03-20T20:33:55.703Z,35.52
2019-03-20T20:36:28.343Z,35.30
2019-03-20T20:38:58.684Z,37.03
2019-03-20T20:41:29.200Z,35.40
2019-03-20T20:43:59.539Z,41.75
2019-03-20T20:46:30.739Z,45.58
2019-03-20T20:49:00.955Z,45.38
2019-03-20T20:51:31.278Z,45.88
2019-03-20T20:54:01.574Z,46.33
2019-03-20T20:56:31.821Z,46.68
2019-03-20T20:59:02.155Z,47.70
2019-03-20T21:01:33.506Z,44.42
2019-03-20T21:04:03.804Z,44.27
2019-03-20T21:06:34.003Z,44.10
2019-03-20T21:09:05.418Z,43.83
2019-03-20T21:11:35.777Z,44.60
2019-03-20T21:14:06.079Z,44.10
2019-03-20T21:16:36.968Z,44.60
2019-03-20T21:19:41.389Z,45.63
2019-03-20T21:23:05.082Z,44.88
2019-03-20T21:25:35.919Z,44.65
2019-03-20T21:28:50.452Z,43.87
2019-03-20T21:32:14.056Z,44.15
2019-03-20T21:35:21.183Z,43.73
2019-03-20T21:38:09.513Z,44.60
2019-03-20T21:40:53.611Z,43.33
2019-03-20T21:43:50.014Z,43.30
2019-03-20T21:47:03.790Z,49.45
2019-03-20T21:49:34.733Z,71.87
2019-03-20T21:52:06.927Z,89.67
2019-03-20T21:55:30.688Z,94.47
2019-03-20T21:58:09.381Z,87.30
2019-03-20T22:01:16.394Z,78.00
2019-03-20T22:03:47.239Z,75.95
2019-03-20T22:07:06.628Z,74.65
2019-03-20T22:10:20.921Z,72.08
2019-03-20T22:13:25.921Z,68.15
2019-03-20T22:16:26.778Z,70.87
2019-03-20T22:19:23.432Z,66.17
2019-03-20T22:22:40.815Z,64.40
2019-03-20T22:25:51.710Z,67.08
2019-03-20T22:29:20.545Z,65.32
2019-03-20T22:32:09.274Z,68.52
2019-03-20T22:34:51.063Z,66.87
2019-03-20T22:37:21.905Z,69.75
2019-03-20T22:40:36.189Z,70.75
2019-03-20T22:43:30.833Z,69.55
2019-03-20T22:46:53.925Z,71.10
2019-03-20T22:50:03.165Z,72.35
2019-03-20T22:52:56.909Z,69.92
2019-03-20T22:56:27.567Z,70.00
2019-03-20T22:58:58.388Z,70.78
2019-03-20T23:01:55.077Z,67.97
2019-03-20T23:04:32.442Z,66.07
2019-03-20T23:07:03.272Z,68.97
2019-03-20T23:09:37.142Z,66.07
2019-03-20T23:12:11.100Z,69.40
2019-03-20T23:14:42.043Z,64.07
2019-03-20T23:17:12.935Z,68.35
2019-03-20T23:19:45.869Z,66.77
2019-03-20T23:22:16.730Z,66.20
2019-03-20T23:24:48.053Z,63.55
2019-03-20T23:27:25.972Z,64.30
2019-03-20T23:29:56.790Z,65.45
2019-03-20T23:32:27.684Z,64.60
2019-03-20T23:34:58.490Z,63.20
2019-03-20T23:37:29.395Z,64.55
2019-03-20T23:40:01.275Z,64.75
2019-03-20T23:42:32.090Z,60.48
2019-03-20T23:45:02.980Z,63.63
2019-03-20T23:47:48.828Z,58.80
2019-03-20T23:50:19.709Z,61.80
2019-03-20T23:52:50.560Z,60.28
2019-03-20T23:55:21.379Z,61.25
2019-03-20T23:57:52.208Z,61.37
